createdAt,value
2018-08-13T00:01:58.731Z,17.31
2018-08-13T00:04:29.287Z,17.18
2018-08-13T00:06:59.780Z,17.10
2018-08-13T00:09:35.272Z,17.10
2018-08-13T00:12:05.880Z,17.16
2018-08-13T00:14:36.393Z,17.07
2018-08-13T00:17:06.994Z,16.93
2018-08-13T00:19:37.741Z,16.87
2018-08-13T00:22:08.191Z,16.77
2018-08-13T00:24:38.755Z,16.67
2018-08-13T00:27:09.289Z,16.63
2018-08-13T00:29:39.895Z,16.56
2018-08-13T00:32:10.294Z,16.54
2018-08-13T00:34:40.711Z,16.49
2018-08-13T00:37:11.212Z,16.47
2018-08-13T00:39:41.791Z,16.46
2018-08-13T00:42:12.352Z,16.49
2018-08-13T00:44:42.962Z,16.38
2018-08-13T00:47:13.533Z,16.40
2018-08-13T00:49:44.138Z,16.36
2018-08-13T00:52:14.605Z,16.45
2018-08-13T00:54:45.323Z,16.51
2018-08-13T00:57:15.886Z,16.36
2018-08-13T00:59:46.367Z,16.24
2018-08-13T01:02:16.721Z,16.31
2018-08-13T01:04:47.365Z,16.30
2018-08-13T01:07:17.808Z,16.21
2018-08-13T01:09:48.394Z,16.16
2018-08-13T01:12:18.952Z,16.20
2018-08-13T01:14:49.585Z,16.15
2018-08-13T01:17:20.048Z,16.14
2018-08-13T01:19:50.437Z,16.16
2018-08-13T01:22:20.937Z,16.19
2018-08-13T01:24:51.570Z,16.22
2018-08-13T01:27:27.140Z,16.23
2018-08-13T01:29:57.409Z,16.16
2018-08-13T01:32:28.156Z,16.17
2018-08-13T01:34:58.926Z,16.11
2018-08-13T01:37:29.675Z,16.07
2018-08-13T01:40:00.335Z,16.00
2018-08-13T01:42:30.715Z,15.99
2018-08-13T01:45:01.282Z,15.96
2018-08-13T01:47:31.913Z,15.98
2018-08-13T01:50:02.419Z,16.00
2018-08-13T01:52:33.085Z,15.96
2018-08-13T01:55:03.666Z,15.93
2018-08-13T01:57:34.339Z,15.90
2018-08-13T02:00:06.568Z,15.87
2018-08-13T02:02:36.941Z,15.77
2018-08-13T02:05:08.043Z,15.79
2018-08-13T02:07:38.995Z,15.67
2018-08-13T02:10:11.708Z,15.63
2018-08-13T02:12:42.546Z,15.64
2018-08-13T02:15:13.215Z,15.48
2018-08-13T02:17:43.805Z,15.42
2018-08-13T02:20:14.486Z,15.41
2018-08-13T02:22:45.224Z,15.28
2018-08-13T02:25:15.733Z,15.19
2018-08-13T02:27:46.332Z,15.19
2018-08-13T02:30:17.026Z,15.12
2018-08-13T02:32:47.609Z,14.97
2018-08-13T02:35:18.053Z,14.95
2018-08-13T02:37:48.500Z,15.01
2018-08-13T02:40:19.044Z,15.02
2018-08-13T02:42:49.670Z,14.98
2018-08-13T02:45:20.239Z,15.02
2018-08-13T02:47:50.860Z,14.94
2018-08-13T02:50:21.291Z,14.86
2018-08-13T02:52:51.826Z,14.77
2018-08-13T02:55:22.305Z,14.80
2018-08-13T02:57:52.636Z,14.81
2018-08-13T03:00:23.136Z,14.80
2018-08-13T03:02:53.618Z,14.84
2018-08-13T03:05:24.208Z,14.83
2018-08-13T03:07:54.778Z,14.86
2018-08-13T03:10:25.486Z,14.84
2018-08-13T03:12:55.776Z,14.87
2018-08-13T03:15:26.285Z,14.91
2018-08-13T03:17:56.870Z,14.97
2018-08-13T03:20:27.473Z,14.94
2018-08-13T03:22:58.045Z,14.91
2018-08-13T03:25:28.641Z,14.88
2018-08-13T03:27:59.213Z,14.87
2018-08-13T03:30:29.812Z,14.87
2018-08-13T03:33:00.407Z,14.84
2018-08-13T03:35:30.815Z,14.91
2018-08-13T03:38:01.143Z,14.93
2018-08-13T03:40:31.660Z,14.90
2018-08-13T03:43:02.275Z,14.88
2018-08-13T03:45:32.930Z,14.90
2018-08-13T03:48:03.446Z,14.82
2018-08-13T03:50:34.067Z,14.72
2018-08-13T03:53:04.697Z,14.76
2018-08-13T03:55:35.212Z,14.77
2018-08-13T03:58:05.901Z,14.68
2018-08-13T04:00:36.359Z,14.80
2018-08-13T04:03:07.495Z,14.67
2018-08-13T04:05:37.962Z,14.74
2018-08-13T04:08:08.711Z,14.67
2018-08-13T04:10:39.367Z,14.62
2018-08-13T04:13:10.033Z,14.66
2018-08-13T04:15:40.707Z,14.70
2018-08-13T04:18:11.502Z,14.72
2018-08-13T04:20:42.204Z,14.71
2018-08-13T04:23:12.793Z,14.63
2018-08-13T04:25:43.378Z,14.73
2018-08-13T04:28:13.844Z,14.72
2018-08-13T04:30:44.384Z,14.75
2018-08-13T04:33:14.806Z,14.89
2018-08-13T04:35:45.410Z,14.87
2018-08-13T04:38:15.953Z,15.02
2018-08-13T04:40:46.477Z,15.42
2018-08-13T04:43:17.144Z,15.89
2018-08-13T04:45:47.629Z,16.29
2018-08-13T04:48:17.694Z,16.78
2018-08-13T04:50:47.840Z,16.50
2018-08-13T04:53:18.252Z,16.70
2018-08-13T04:55:48.736Z,16.83
2018-08-13T04:58:18.800Z,16.62
2018-08-13T05:00:49.394Z,16.68
2018-08-13T05:03:19.873Z,17.10
2018-08-13T05:05:50.455Z,17.29
2018-08-13T05:08:21.011Z,17.16
2018-08-13T05:10:51.792Z,17.11
2018-08-13T05:13:22.420Z,16.90
2018-08-13T05:15:52.944Z,16.77
2018-08-13T05:18:23.267Z,16.88
2018-08-13T05:20:53.845Z,16.85
2018-08-13T05:23:24.316Z,17.01
2018-08-13T05:25:54.933Z,17.18
2018-08-13T05:28:25.437Z,17.49
2018-08-13T05:30:56.067Z,18.10
2018-08-13T05:33:26.579Z,18.58
2018-08-13T05:35:57.132Z,18.81
2018-08-13T05:38:27.349Z,19.10
2018-08-13T05:40:57.808Z,20.63
2018-08-13T05:43:28.384Z,21.73
2018-08-13T05:45:59.008Z,22.42
2018-08-13T05:48:29.693Z,22.79
2018-08-13T05:51:00.275Z,22.74
2018-08-13T05:53:30.832Z,23.44
2018-08-13T05:56:01.405Z,22.23
2018-08-13T05:58:31.908Z,21.70
2018-08-13T06:01:02.508Z,21.63
2018-08-13T06:03:33.288Z,21.19
2018-08-13T06:06:04.028Z,20.42
2018-08-13T06:08:34.542Z,20.08
2018-08-13T06:11:05.288Z,20.43
2018-08-13T06:13:35.936Z,21.55
2018-08-13T06:16:06.517Z,22.62
2018-08-13T06:18:37.104Z,23.38
2018-08-13T06:21:07.724Z,24.68
2018-08-13T06:23:38.203Z,24.90
2018-08-13T06:26:08.899Z,24.91
2018-08-13T06:28:39.412Z,24.97
2018-08-13T06:31:10.059Z,23.74
2018-08-13T06:33:40.599Z,23.19
2018-08-13T06:36:11.083Z,22.80
2018-08-13T06:38:41.772Z,22.19
2018-08-13T06:41:12.459Z,22.64
2018-08-13T06:43:43.204Z,23.43
2018-08-13T06:46:13.919Z,22.97
2018-08-13T06:48:44.519Z,23.00
2018-08-13T06:51:14.928Z,22.43
2018-08-13T06:53:45.440Z,22.62
2018-08-13T06:56:16.040Z,22.96
2018-08-13T06:58:46.635Z,23.58
2018-08-13T07:01:17.269Z,25.39
2018-08-13T07:03:47.783Z,24.98
2018-08-13T07:06:18.391Z,24.47
2018-08-13T07:08:48.949Z,25.10
2018-08-13T07:11:19.502Z,27.03
2018-08-13T07:13:50.035Z,28.49
2018-08-13T07:16:20.724Z,27.99
2018-08-13T07:18:51.233Z,27.26
2018-08-13T07:21:21.831Z,28.99
2018-08-13T07:23:52.334Z,29.04
2018-08-13T07:26:22.766Z,29.41
2018-08-13T07:28:53.132Z,29.71
2018-08-13T07:31:23.602Z,29.10
2018-08-13T07:33:54.204Z,27.04
2018-08-13T07:36:24.766Z,25.86
2018-08-13T07:38:55.353Z,25.72
2018-08-13T07:41:25.789Z,25.70
2018-08-13T07:43:56.283Z,25.60
2018-08-13T07:46:26.853Z,25.02
2018-08-13T07:48:57.342Z,24.67
2018-08-13T07:51:28.022Z,24.66
2018-08-13T07:53:58.578Z,24.74
2018-08-13T07:56:29.178Z,24.65
2018-08-13T07:58:59.842Z,24.55
2018-08-13T08:01:30.435Z,24.91
2018-08-13T08:04:00.791Z,25.33
2018-08-13T08:06:31.254Z,25.15
2018-08-13T08:09:01.713Z,25.52
2018-08-13T08:11:32.342Z,25.45
2018-08-13T08:14:02.956Z,25.69
2018-08-13T08:16:33.637Z,26.36
2018-08-13T08:19:04.315Z,26.92
2018-08-13T08:21:35.005Z,26.49
2018-08-13T08:24:05.692Z,26.37
2018-08-13T08:26:36.383Z,27.05
2018-08-13T08:29:08.270Z,27.67
2018-08-13T08:31:38.871Z,28.38
2018-08-13T08:34:10.608Z,28.92
2018-08-13T08:36:41.206Z,29.36
2018-08-13T08:39:13.866Z,29.67
2018-08-13T08:41:44.979Z,29.41
2018-08-13T08:44:15.372Z,28.92
2018-08-13T08:46:45.964Z,28.50
2018-08-13T08:49:16.463Z,28.98
2018-08-13T08:51:47.167Z,29.14
2018-08-13T08:54:17.509Z,28.76
2018-08-13T08:56:47.885Z,29.11
2018-08-13T08:59:18.364Z,29.30
2018-08-13T09:01:48.942Z,29.04
2018-08-13T09:04:20.441Z,28.74
2018-08-13T09:06:50.904Z,28.68
2018-08-13T09:09:21.092Z,28.58
2018-08-13T09:11:51.676Z,28.38
2018-08-13T09:14:22.200Z,28.36
2018-08-13T09:16:53.820Z,28.36
2018-08-13T09:19:41.256Z,28.45
2018-08-13T09:22:28.184Z,28.46
2018-08-13T09:25:15.222Z,28.38
2018-08-13T09:28:02.183Z,29.08
2018-08-13T09:30:49.183Z,28.58
2018-08-13T09:33:35.992Z,28.22
2018-08-13T09:36:06.547Z,27.73
2018-08-13T09:38:37.121Z,27.80
2018-08-13T09:41:07.646Z,27.65
2018-08-13T09:43:38.373Z,27.50
2018-08-13T09:46:09.236Z,27.41
2018-08-13T09:48:39.860Z,27.07
2018-08-13T09:51:10.456Z,27.16
2018-08-13T09:53:41.062Z,27.31
2018-08-13T09:56:11.718Z,26.90
2018-08-13T09:58:42.404Z,26.95
2018-08-13T10:01:13.558Z,26.76
2018-08-13T10:03:44.199Z,26.85
2018-08-13T10:06:14.676Z,26.79
2018-08-13T10:08:45.247Z,26.68
2018-08-13T10:11:15.938Z,26.76
2018-08-13T10:13:46.649Z,26.52
2018-08-13T10:16:17.186Z,26.64
2018-08-13T10:18:47.896Z,26.31
2018-08-13T10:21:18.476Z,25.84
2018-08-13T10:23:57.144Z,25.73
2018-08-13T10:26:27.884Z,25.57
2018-08-13T10:28:58.383Z,25.50
2018-08-13T10:31:29.009Z,25.31
2018-08-13T10:33:59.461Z,25.41
2018-08-13T10:36:31.249Z,25.22
2018-08-13T10:39:01.772Z,25.13
2018-08-13T10:41:32.256Z,24.89
2018-08-13T10:44:02.862Z,25.16
2018-08-13T10:46:33.411Z,24.74
2018-08-13T10:49:04.428Z,25.07
2018-08-13T10:51:35.029Z,24.75
2018-08-13T10:54:05.764Z,24.47
2018-08-13T10:56:36.377Z,24.54
2018-08-13T10:59:07.261Z,24.54
2018-08-13T11:01:37.844Z,24.22
2018-08-13T11:04:08.555Z,24.25
2018-08-13T11:06:39.226Z,24.06
2018-08-13T11:09:11.559Z,23.98
2018-08-13T11:11:42.133Z,23.82
2018-08-13T11:14:12.544Z,23.58
2018-08-13T11:16:43.244Z,23.30
2018-08-13T11:19:13.775Z,23.09
2018-08-13T11:21:44.375Z,22.99
2018-08-13T11:24:14.924Z,22.94
2018-08-13T11:26:45.582Z,22.78
2018-08-13T11:29:16.194Z,22.95
2018-08-13T11:31:46.805Z,22.67
2018-08-13T11:34:17.503Z,22.54
2018-08-13T11:36:48.081Z,22.66
2018-08-13T11:39:18.745Z,22.75
2018-08-13T11:41:49.344Z,22.73
2018-08-13T11:44:19.939Z,22.73
2018-08-13T11:46:50.332Z,22.54
2018-08-13T11:49:20.800Z,22.40
2018-08-13T11:51:51.352Z,22.18
2018-08-13T11:54:22.011Z,22.17
2018-08-13T11:56:52.564Z,22.38
2018-08-13T11:59:23.397Z,22.26
2018-08-13T12:01:53.920Z,22.07
2018-08-13T12:04:24.411Z,21.99
2018-08-13T12:06:54.977Z,22.09
2018-08-13T12:09:25.636Z,22.00
2018-08-13T12:11:56.248Z,22.27
2018-08-13T12:14:26.638Z,22.26
2018-08-13T12:16:56.871Z,22.23
2018-08-13T12:19:27.485Z,22.41
2018-08-13T12:21:58.076Z,22.58
2018-08-13T12:24:28.672Z,22.79
2018-08-13T12:26:59.035Z,22.87
2018-08-13T12:29:29.536Z,22.68
2018-08-13T12:32:00.115Z,22.73
2018-08-13T12:34:30.546Z,22.80
2018-08-13T12:37:06.130Z,22.58
2018-08-13T12:39:36.815Z,22.60
2018-08-13T12:42:08.316Z,22.56
2018-08-13T12:44:39.047Z,22.67
2018-08-13T12:47:09.859Z,22.78
2018-08-13T12:49:41.464Z,22.84
2018-08-13T12:52:12.050Z,22.98
2018-08-13T12:54:42.728Z,22.63
2018-08-13T12:57:13.440Z,22.65
2018-08-13T12:59:45.949Z,22.46
2018-08-13T13:02:16.580Z,22.52
2018-08-13T13:04:47.339Z,22.67
2018-08-13T13:07:17.820Z,22.63
2018-08-13T13:09:48.492Z,22.37
2018-08-13T13:12:19.076Z,22.54
2018-08-13T13:14:49.415Z,22.57
2018-08-13T13:17:19.934Z,22.47
2018-08-13T13:19:50.634Z,22.31
2018-08-13T13:22:21.113Z,22.40
2018-08-13T13:24:51.775Z,22.16
2018-08-13T13:27:22.273Z,22.09
2018-08-13T13:29:52.868Z,22.23
2018-08-13T13:32:23.304Z,22.23
2018-08-13T13:34:54.028Z,22.34
2018-08-13T13:37:24.709Z,22.34
2018-08-13T13:39:55.198Z,22.38
2018-08-13T13:42:25.691Z,22.36
2018-08-13T13:44:56.130Z,22.49
2018-08-13T13:47:26.616Z,22.40
2018-08-13T13:49:57.236Z,22.52
2018-08-13T13:52:27.818Z,22.63
2018-08-13T13:54:58.658Z,22.85
2018-08-13T13:57:29.196Z,23.23
2018-08-13T13:59:59.764Z,23.11
2018-08-13T14:02:30.304Z,23.27
2018-08-13T14:05:00.851Z,23.67
2018-08-13T14:07:31.308Z,23.80
2018-08-13T14:10:01.923Z,24.06
2018-08-13T14:12:32.493Z,23.88
2018-08-13T14:15:03.160Z,24.11
2018-08-13T14:17:33.787Z,24.00
2018-08-13T14:20:04.460Z,23.98
2018-08-13T14:22:35.044Z,24.08
2018-08-13T14:25:06.376Z,23.93
2018-08-13T14:27:36.863Z,24.07
2018-08-13T14:30:13.000Z,23.97
2018-08-13T14:32:43.531Z,23.95
2018-08-13T14:35:14.145Z,23.92
2018-08-13T14:37:44.755Z,23.94
2018-08-13T14:40:15.387Z,23.99
2018-08-13T14:42:46.189Z,24.06
2018-08-13T14:45:18.061Z,24.34
2018-08-13T14:47:50.139Z,24.38
2018-08-13T14:50:20.865Z,24.32
2018-08-13T14:52:51.433Z,24.48
2018-08-13T14:55:23.349Z,24.85
2018-08-13T14:57:53.822Z,24.62
2018-08-13T15:00:34.347Z,24.53
2018-08-13T15:03:07.105Z,24.50
2018-08-13T15:05:37.788Z,24.62
2018-08-13T15:08:08.653Z,24.75
2018-08-13T15:10:39.152Z,24.74
2018-08-13T15:13:09.675Z,24.84
2018-08-13T15:15:40.293Z,24.70
2018-08-13T15:18:10.837Z,24.72
2018-08-13T15:20:41.829Z,24.50
2018-08-13T15:23:12.371Z,24.31
2018-08-13T15:25:43.001Z,24.19
2018-08-13T15:28:13.724Z,24.09
2018-08-13T15:30:44.321Z,24.02
2018-08-13T15:33:14.915Z,24.00
2018-08-13T15:35:45.758Z,24.16
2018-08-13T15:38:16.065Z,23.96
2018-08-13T15:40:46.584Z,24.10
2018-08-13T15:43:17.079Z,24.12
2018-08-13T15:45:47.610Z,24.10
2018-08-13T15:48:18.207Z,24.26
2018-08-13T15:50:48.865Z,24.26
2018-08-13T15:53:19.416Z,24.18
2018-08-13T15:55:49.841Z,23.98
2018-08-13T15:58:20.343Z,23.90
2018-08-13T16:00:50.930Z,23.76
2018-08-13T16:03:21.554Z,23.66
2018-08-13T16:05:52.215Z,23.67
2018-08-13T16:08:22.888Z,23.52
2018-08-13T16:10:53.411Z,23.59
2018-08-13T16:13:23.839Z,23.47
2018-08-13T16:15:54.327Z,23.60
2018-08-13T16:18:24.982Z,23.98
2018-08-13T16:20:55.574Z,24.26
2018-08-13T16:23:26.222Z,24.38
2018-08-13T16:25:56.804Z,24.39
2018-08-13T16:28:27.456Z,24.26
2018-08-13T16:30:58.020Z,24.00
2018-08-13T16:33:28.748Z,24.10
2018-08-13T16:35:59.413Z,23.92
2018-08-13T16:38:30.020Z,23.78
2018-08-13T16:41:00.554Z,23.69
2018-08-13T16:43:31.129Z,23.71
2018-08-13T16:46:01.801Z,23.72
2018-08-13T16:48:33.380Z,23.58
2018-08-13T16:51:04.061Z,23.48
2018-08-13T16:53:34.688Z,23.41
2018-08-13T16:56:05.478Z,23.37
2018-08-13T16:58:36.037Z,23.32
2018-08-13T17:01:06.758Z,23.37
2018-08-13T17:03:37.192Z,23.25
2018-08-13T17:06:07.979Z,23.38
2018-08-13T17:08:38.668Z,23.46
2018-08-13T17:11:09.331Z,23.42
2018-08-13T17:13:40.017Z,23.41
2018-08-13T17:16:11.392Z,23.41
2018-08-13T17:18:41.942Z,23.52
2018-08-13T17:21:12.636Z,23.63
2018-08-13T17:23:43.053Z,23.77
2018-08-13T17:26:13.636Z,23.77
2018-08-13T17:28:44.333Z,23.80
2018-08-13T17:31:14.895Z,23.77
2018-08-13T17:33:45.565Z,23.72
2018-08-13T17:36:16.155Z,23.62
2018-08-13T17:38:46.836Z,23.56
2018-08-13T17:41:17.523Z,23.48
2018-08-13T17:43:48.084Z,23.49
2018-08-13T17:46:18.855Z,23.40
2018-08-13T17:48:49.416Z,23.32
2018-08-13T17:51:21.052Z,23.24
2018-08-13T17:53:51.633Z,23.15
2018-08-13T17:56:22.114Z,22.98
2018-08-13T17:58:52.580Z,23.04
2018-08-13T18:01:23.145Z,22.92
2018-08-13T18:03:54.045Z,22.82
2018-08-13T18:06:24.512Z,22.82
2018-08-13T18:08:55.294Z,22.74
2018-08-13T18:11:25.821Z,22.66
2018-08-13T18:13:56.443Z,22.59
2018-08-13T18:16:27.200Z,22.53
2018-08-13T18:18:57.759Z,22.33
2018-08-13T18:21:28.348Z,22.38
2018-08-13T18:23:58.987Z,22.30
2018-08-13T18:26:31.573Z,22.08
2018-08-13T18:29:02.165Z,22.14
2018-08-13T18:31:32.596Z,21.98
2018-08-13T18:34:03.276Z,21.81
2018-08-13T18:36:33.879Z,21.78
2018-08-13T18:39:05.342Z,21.67
2018-08-13T18:41:35.954Z,21.66
2018-08-13T18:44:06.640Z,21.54
2018-08-13T18:46:37.285Z,21.58
2018-08-13T18:49:07.835Z,21.50
2018-08-13T18:51:38.481Z,21.42
2018-08-13T18:54:08.909Z,21.40
2018-08-13T18:56:39.597Z,21.32
2018-08-13T18:59:10.301Z,21.26
2018-08-13T19:01:41.050Z,21.22
2018-08-13T19:04:11.557Z,21.12
2018-08-13T19:06:42.255Z,21.07
2018-08-13T19:09:12.942Z,21.05
2018-08-13T19:11:43.582Z,20.92
2018-08-13T19:14:13.756Z,21.02
2018-08-13T19:16:44.413Z,21.04
2018-08-13T19:19:15.011Z,20.95
2018-08-13T19:21:45.612Z,20.88
2018-08-13T19:24:16.132Z,21.02
2018-08-13T19:26:46.674Z,20.91
2018-08-13T19:29:17.328Z,20.89
2018-08-13T19:31:48.882Z,20.78
2018-08-13T19:34:19.310Z,20.69
2018-08-13T19:36:49.833Z,20.69
2018-08-13T19:39:20.383Z,20.54
2018-08-13T19:41:50.767Z,20.49
2018-08-13T19:44:21.312Z,20.37
2018-08-13T19:46:51.732Z,20.27
2018-08-13T19:49:22.107Z,20.26
2018-08-13T19:51:52.611Z,20.20
2018-08-13T19:54:22.972Z,20.15
2018-08-13T19:56:53.479Z,20.07
2018-08-13T19:59:24.133Z,20.01
2018-08-13T20:01:54.738Z,20.03
2018-08-13T20:04:25.254Z,19.93
2018-08-13T20:06:55.803Z,19.94
2018-08-13T20:09:26.227Z,19.87
2018-08-13T20:11:57.859Z,19.83
2018-08-13T20:14:28.467Z,19.75
2018-08-13T20:16:58.973Z,19.72
2018-08-13T20:19:29.584Z,19.68
2018-08-13T20:22:01.520Z,19.57
2018-08-13T20:24:32.047Z,19.51
2018-08-13T20:27:02.624Z,19.49
2018-08-13T20:29:33.176Z,19.57
2018-08-13T20:32:03.841Z,19.50
2018-08-13T20:34:34.476Z,19.60
2018-08-13T20:37:05.081Z,19.49
2018-08-13T20:39:35.683Z,19.49
2018-08-13T20:42:06.219Z,19.55
2018-08-13T20:44:36.908Z,19.60
2018-08-13T20:47:07.410Z,19.61
2018-08-13T20:49:37.848Z,19.58
2018-08-13T20:52:08.261Z,19.66
2018-08-13T20:54:39.016Z,19.52
2018-08-13T20:57:09.458Z,19.42
2018-08-13T20:59:40.120Z,19.41
2018-08-13T21:02:10.722Z,19.50
2018-08-13T21:04:41.387Z,19.53
2018-08-13T21:07:12.028Z,19.32
2018-08-13T21:09:42.567Z,19.27
2018-08-13T21:12:13.133Z,19.27
2018-08-13T21:14:43.914Z,19.33
2018-08-13T21:17:14.510Z,19.16
2018-08-13T21:19:44.992Z,19.17
2018-08-13T21:22:15.576Z,19.11
2018-08-13T21:24:46.177Z,19.15
2018-08-13T21:27:16.835Z,19.07
2018-08-13T21:29:47.332Z,19.03
2018-08-13T21:32:17.756Z,19.05
2018-08-13T21:34:48.297Z,18.99
2018-08-13T21:37:18.840Z,18.98
2018-08-13T21:39:49.361Z,19.10
2018-08-13T21:42:19.960Z,19.04
2018-08-13T21:44:50.794Z,19.04
2018-08-13T21:47:21.315Z,19.04
2018-08-13T21:49:52.005Z,18.93
2018-08-13T21:52:22.687Z,19.05
2018-08-13T21:54:53.288Z,19.07
2018-08-13T21:57:25.040Z,18.95
2018-08-13T21:59:56.216Z,18.88
2018-08-13T22:02:27.556Z,18.82
2018-08-13T22:04:58.328Z,18.79
2018-08-13T22:07:28.855Z,18.74
2018-08-13T22:09:59.325Z,18.70
2018-08-13T22:12:29.929Z,18.52
2018-08-13T22:15:00.480Z,18.57
2018-08-13T22:17:31.151Z,18.53
2018-08-13T22:20:01.620Z,18.57
2018-08-13T22:22:32.127Z,18.42
2018-08-13T22:25:04.936Z,18.46
2018-08-13T22:27:35.385Z,18.20
2018-08-13T22:30:07.483Z,18.24
2018-08-13T22:32:38.098Z,18.34
2018-08-13T22:35:09.984Z,18.18
2018-08-13T22:37:41.760Z,18.17
2018-08-13T22:40:17.000Z,18.10
2018-08-13T22:42:47.681Z,17.99
2018-08-13T22:45:23.316Z,17.91
2018-08-13T22:47:53.821Z,18.02
2018-08-13T22:50:24.296Z,18.03
2018-08-13T22:52:55.038Z,18.02
2018-08-13T22:55:25.334Z,17.97
2018-08-13T22:57:56.008Z,18.01
2018-08-13T23:00:26.537Z,18.08
2018-08-13T23:02:57.139Z,17.96
2018-08-13T23:05:28.385Z,17.98
2018-08-13T23:07:58.924Z,17.99
2018-08-13T23:10:29.503Z,17.98
2018-08-13T23:13:00.128Z,18.00
2018-08-13T23:15:30.659Z,17.99
2018-08-13T23:18:01.341Z,17.97
2018-08-13T23:20:31.926Z,17.92
2018-08-13T23:23:03.453Z,17.96
2018-08-13T23:25:35.452Z,17.88
2018-08-13T23:28:11.307Z,17.82
2018-08-13T23:30:41.691Z,17.86
2018-08-13T23:33:12.188Z,17.79
2018-08-13T23:35:42.813Z,17.80
2018-08-13T23:38:13.355Z,17.86
2018-08-13T23:40:44.107Z,17.86
2018-08-13T23:43:14.576Z,17.82
2018-08-13T23:45:45.256Z,17.79
2018-08-13T23:48:16.083Z,17.80
2018-08-13T23:50:46.606Z,17.85
2018-08-13T23:53:18.155Z,17.84
2018-08-13T23:55:48.589Z,17.76
2018-08-13T23:58:19.180Z,17.73
